createdAt,value
2022-10-23T00:02:02.432Z,100826.63
2022-10-23T00:04:39.050Z,100818.97
2022-10-23T00:07:07.160Z,100813.88
2022-10-23T00:09:35.096Z,100814.56
2022-10-23T00:12:02.864Z,100819.44
2022-10-23T00:14:30.859Z,100815.56
2022-10-23T00:16:59.995Z,100811.13
2022-10-23T00:19:28.192Z,100813.19
2022-10-23T00:21:56.037Z,100809.34
2022-10-23T00:24:23.867Z,100806.06
2022-10-23T00:26:51.955Z,100800.69
2022-10-23T00:29:19.818Z,100799.59
2022-10-23T00:31:47.675Z,100790.56
2022-10-23T00:34:16.887Z,100796.75
2022-10-23T00:36:44.604Z,100806.94
2022-10-23T00:39:12.547Z,100801.56
2022-10-23T00:41:40.564Z,100804.50
2022-10-23T00:44:11.312Z,100802.75
2022-10-23T00:46:40.566Z,100804.03
2022-10-23T00:49:09.676Z,100801.03
2022-10-23T00:51:42.303Z,100800.31
2022-10-23T00:54:26.628Z,100809.06
2022-10-23T00:56:57.283Z,100811.50
2022-10-23T00:59:25.899Z,100814.34
2022-10-23T01:01:53.969Z,100810.41
2022-10-23T01:04:23.532Z,100806.53
2022-10-23T01:07:00.495Z,100807.59
2022-10-23T01:09:35.180Z,100803.47
2022-10-23T01:12:16.346Z,100804.16
2022-10-23T01:14:50.512Z,100793.81
2022-10-23T01:17:25.054Z,100791.91
2022-10-23T01:20:10.721Z,100791.69
2022-10-23T01:22:52.953Z,100793.44
2022-10-23T01:25:30.956Z,100799.63
2022-10-23T01:28:10.624Z,100785.38
2022-10-23T01:30:43.831Z,100771.66
2022-10-23T01:33:19.437Z,100773.59
2022-10-23T01:35:51.335Z,100772.88
2022-10-23T01:38:24.040Z,100761.44
2022-10-23T01:40:58.439Z,100768.81
2022-10-23T01:43:32.648Z,100770.69
2022-10-23T01:46:03.335Z,100745.38
2022-10-23T01:48:33.110Z,100739.34
2022-10-23T01:51:04.512Z,100722.72
2022-10-23T01:53:38.474Z,100720.84
2022-10-23T01:56:13.993Z,100715.94
2022-10-23T01:58:46.673Z,100707.63
2022-10-23T02:01:16.392Z,100695.03
2022-10-23T02:03:45.723Z,100695.38
2022-10-23T02:06:14.967Z,100693.22
2022-10-23T02:08:43.344Z,100683.06
2022-10-23T02:11:15.219Z,100678.53
2022-10-23T02:13:57.847Z,100672.66
2022-10-23T02:16:40.607Z,100667.59
2022-10-23T02:19:18.860Z,100665.91
2022-10-23T02:22:08.289Z,100663.22
2022-10-23T02:24:45.831Z,100660.03
2022-10-23T02:27:18.169Z,100663.53
2022-10-23T02:29:53.077Z,100666.84
2022-10-23T02:32:23.353Z,100672.94
2022-10-23T02:34:54.398Z,100664.41
2022-10-23T02:37:25.275Z,100650.69
2022-10-23T02:39:54.536Z,100647.09
2022-10-23T02:42:29.314Z,100645.66
2022-10-23T02:45:09.056Z,100641.75
2022-10-23T02:47:54.437Z,100634.94
2022-10-23T02:50:30.435Z,100632.91
2022-10-23T02:53:04.583Z,100625.59
2022-10-23T02:55:46.516Z,100617.09
2022-10-23T02:58:21.603Z,100613.06
2022-10-23T03:00:56.820Z,100610.31
2022-10-23T03:03:30.475Z,100602.50
2022-10-23T03:05:59.048Z,100597.53
2022-10-23T03:08:29.018Z,100590.97
2022-10-23T03:10:57.302Z,100593.97
2022-10-23T03:13:25.203Z,100588.59
2022-10-23T03:15:56.015Z,100589.34
2022-10-23T03:18:23.753Z,100591.81
2022-10-23T03:20:51.670Z,100580.81
2022-10-23T03:23:19.540Z,100577.06
2022-10-23T03:25:48.402Z,100568.00
2022-10-23T03:28:18.308Z,100569.63
2022-10-23T03:30:46.232Z,100568.47
2022-10-23T03:33:15.868Z,100561.56
2022-10-23T03:35:43.758Z,100552.91
2022-10-23T03:38:11.614Z,100552.16
2022-10-23T03:40:39.804Z,100546.53
2022-10-23T03:43:09.189Z,100544.84
2022-10-23T03:45:38.481Z,100544.03
2022-10-23T03:48:07.896Z,100548.25
2022-10-23T03:50:37.517Z,100533.19
2022-10-23T03:53:05.360Z,100532.00
2022-10-23T03:55:33.362Z,100533.84
2022-10-23T03:58:01.117Z,100536.38
2022-10-23T04:00:30.166Z,100529.81
2022-10-23T04:02:58.198Z,100523.97
2022-10-23T04:05:25.945Z,100514.84
2022-10-23T04:07:57.184Z,100502.34
2022-10-23T04:10:26.167Z,100503.50
2022-10-23T04:12:54.107Z,100506.34
2022-10-23T04:15:21.979Z,100495.69
2022-10-23T04:17:50.062Z,100479.97
2022-10-23T04:20:17.890Z,100478.28
2022-10-23T04:22:46.098Z,100472.19
2022-10-23T04:25:16.638Z,100467.22
2022-10-23T04:27:47.387Z,100461.53
2022-10-23T04:30:15.475Z,100447.78
2022-10-23T04:32:43.338Z,100452.00
2022-10-23T04:35:11.211Z,100441.31
2022-10-23T04:37:39.061Z,100443.56
2022-10-23T04:40:08.252Z,100441.09
2022-10-23T04:42:37.387Z,100440.47
2022-10-23T04:45:08.468Z,100438.38
2022-10-23T04:47:36.294Z,100434.06
2022-10-23T04:50:05.677Z,100439.34
2022-10-23T04:52:33.461Z,100416.03
2022-10-23T04:55:01.325Z,100422.91
2022-10-23T04:57:29.212Z,100426.38
2022-10-23T04:59:58.368Z,100429.38
2022-10-23T05:02:27.662Z,100430.09
2022-10-23T05:04:55.400Z,100429.63
2022-10-23T05:07:23.282Z,100427.97
2022-10-23T05:09:51.100Z,100414.19
2022-10-23T05:12:20.553Z,100408.94
2022-10-23T05:14:48.291Z,100408.72
2022-10-23T05:17:20.196Z,100404.41
2022-10-23T05:19:52.821Z,100399.13
2022-10-23T05:22:28.559Z,100397.03
2022-10-23T05:24:58.687Z,100381.63
2022-10-23T05:27:26.517Z,100385.31
2022-10-23T05:29:54.388Z,100384.38
2022-10-23T05:32:26.298Z,100368.25
2022-10-23T05:34:55.307Z,100366.97
2022-10-23T05:37:24.012Z,100368.38
2022-10-23T05:39:52.940Z,100352.88
2022-10-23T05:42:20.802Z,100329.78
2022-10-23T05:44:48.695Z,100344.78
2022-10-23T05:47:17.645Z,100336.00
2022-10-23T05:49:46.900Z,100337.88
2022-10-23T05:52:15.116Z,100330.72
2022-10-23T05:54:43.079Z,100319.75
2022-10-23T05:57:10.870Z,100327.97
2022-10-23T05:59:38.734Z,100325.53
2022-10-23T06:02:07.882Z,100318.81
2022-10-23T06:04:38.603Z,100310.63
2022-10-23T06:07:07.853Z,100316.16
2022-10-23T06:09:35.835Z,100297.06
2022-10-23T06:12:03.812Z,100293.28
2022-10-23T06:14:31.861Z,100281.16
2022-10-23T06:17:02.785Z,100267.03
2022-10-23T06:19:31.080Z,100277.50
2022-10-23T06:21:59.223Z,100277.84
2022-10-23T06:24:31.381Z,100272.22
2022-10-23T06:26:59.327Z,100275.53
2022-10-23T06:29:27.170Z,100266.03
2022-10-23T06:31:55.453Z,100258.00
2022-10-23T06:34:23.533Z,100229.16
2022-10-23T06:36:51.371Z,100231.81
2022-10-23T06:39:22.418Z,100231.25
2022-10-23T06:41:51.731Z,100220.41
2022-10-23T06:44:19.592Z,100217.63
2022-10-23T06:46:52.769Z,100186.63
2022-10-23T06:49:20.714Z,100143.16
2022-10-23T06:51:50.589Z,100148.44
2022-10-23T06:54:22.796Z,100141.13
2022-10-23T06:56:52.342Z,100132.84
2022-10-23T06:59:29.550Z,100124.97
2022-10-23T07:01:57.945Z,100134.63
2022-10-23T07:04:25.733Z,100115.97
2022-10-23T07:06:56.265Z,100105.56
2022-10-23T07:09:24.557Z,100098.28
2022-10-23T07:11:54.762Z,100101.41
2022-10-23T07:14:23.523Z,100077.16
2022-10-23T07:16:52.373Z,100057.38
2022-10-23T07:19:20.281Z,100055.38
2022-10-23T07:21:48.465Z,100050.59
2022-10-23T07:24:16.440Z,100026.53
2022-10-23T07:26:44.874Z,100008.84
2022-10-23T07:29:15.610Z,99995.22
2022-10-23T07:31:43.472Z,99995.84
2022-10-23T07:34:11.573Z,99979.59
2022-10-23T07:36:39.429Z,99963.69
2022-10-23T07:39:07.397Z,99961.81
2022-10-23T07:41:37.250Z,99950.59
2022-10-23T07:44:05.433Z,99936.03
2022-10-23T07:46:34.977Z,99746.75
2022-10-23T07:49:02.895Z,99731.28
2022-10-23T07:51:30.742Z,99728.53
2022-10-23T07:53:58.867Z,99709.41
2022-10-23T07:56:29.884Z,99702.91
2022-10-23T07:58:58.071Z,99692.69
2022-10-23T08:01:31.665Z,99683.03
2022-10-23T08:04:01.769Z,99647.91
2022-10-23T08:06:29.873Z,99644.41
2022-10-23T08:09:03.898Z,99615.44
2022-10-23T08:11:35.746Z,99584.22
2022-10-23T08:14:06.597Z,99580.34
2022-10-23T08:16:36.944Z,99562.34
2022-10-23T08:19:07.591Z,99554.94
2022-10-23T08:21:35.452Z,99549.03
2022-10-23T08:24:03.393Z,99537.72
2022-10-23T08:26:31.734Z,99518.94
2022-10-23T08:29:00.479Z,99513.44
2022-10-23T08:31:29.274Z,99478.28
2022-10-23T08:33:57.249Z,99439.47
2022-10-23T08:36:28.670Z,99413.72
2022-10-23T08:38:58.727Z,99385.44
2022-10-23T08:41:33.312Z,99372.94
2022-10-23T08:44:09.454Z,99373.34
2022-10-23T08:46:41.651Z,99329.78
2022-10-23T08:49:22.340Z,99302.97
2022-10-23T08:51:53.720Z,99294.56
2022-10-23T08:54:25.490Z,99289.88
2022-10-23T08:56:59.456Z,99286.38
2022-10-23T08:59:33.102Z,99299.50
2022-10-23T09:02:05.705Z,99281.81
2022-10-23T09:04:34.197Z,99252.81
2022-10-23T09:07:11.201Z,99265.03
2022-10-23T09:09:56.127Z,99226.78
2022-10-23T09:12:28.091Z,99201.25
2022-10-23T09:15:06.394Z,99214.47
2022-10-23T09:17:38.076Z,99204.31
2022-10-23T09:20:19.000Z,99192.72
2022-10-23T09:22:50.027Z,99154.31
2022-10-23T09:25:20.663Z,99123.28
2022-10-23T09:27:51.887Z,99100.19
2022-10-23T09:30:35.413Z,99104.59
2022-10-23T09:33:15.112Z,99117.16
2022-10-23T09:35:56.036Z,99101.34
2022-10-23T09:38:30.904Z,99093.81
2022-10-23T09:41:01.474Z,99071.41
2022-10-23T09:43:32.122Z,99040.66
2022-10-23T09:46:04.281Z,99017.22
2022-10-23T09:48:33.221Z,99018.31
2022-10-23T09:51:16.099Z,98979.09
2022-10-23T09:53:54.095Z,98979.41
2022-10-23T09:56:27.801Z,98936.84
2022-10-23T09:58:58.425Z,98935.56
2022-10-23T10:01:28.354Z,98922.53
2022-10-23T10:03:56.919Z,98899.78
2022-10-23T10:06:27.708Z,98875.78
2022-10-23T10:08:58.863Z,98861.28
2022-10-23T10:11:32.612Z,98869.59
2022-10-23T10:14:31.993Z,98863.88
2022-10-23T10:17:04.752Z,98841.03
2022-10-23T10:19:48.433Z,98879.03
2022-10-23T10:22:30.437Z,98873.69
2022-10-23T10:25:04.002Z,98873.03
2022-10-23T10:27:44.373Z,98917.31
2022-10-23T10:30:16.910Z,98964.66
2022-10-23T10:32:55.397Z,99097.69
2022-10-23T10:35:35.382Z,99263.13
2022-10-23T10:38:31.575Z,99505.81
2022-10-23T10:41:37.357Z,99703.03
2022-10-23T10:44:47.840Z,99886.38
2022-10-23T10:47:27.425Z,99939.66
2022-10-23T10:50:13.346Z,100018.94
2022-10-23T10:52:49.259Z,100080.38
2022-10-23T10:58:10.549Z,100179.66
2022-10-23T11:00:39.079Z,100235.72
2022-10-23T11:03:23.615Z,100312.03
2022-10-23T11:05:55.547Z,100417.41
2022-10-23T11:08:40.245Z,100638.06
2022-10-23T11:11:22.758Z,101077.19
2022-10-23T11:13:53.961Z,101329.75
2022-10-23T11:16:26.721Z,101174.44
2022-10-23T11:19:11.520Z,101188.41
2022-10-23T11:21:45.429Z,101105.59
2022-10-23T11:24:41.369Z,101043.91
2022-10-23T11:27:33.833Z,101010.06
2022-10-23T11:30:24.127Z,101002.28
2022-10-23T11:33:38.357Z,100943.81
2022-10-23T11:36:19.565Z,100921.81
2022-10-23T11:38:53.811Z,100924.75
2022-10-23T11:41:27.024Z,100936.63
2022-10-23T11:43:57.506Z,100974.63
2022-10-23T11:46:35.135Z,100992.19
2022-10-23T11:49:06.211Z,101004.75
2022-10-23T11:51:38.555Z,101000.78
2022-10-23T11:54:24.443Z,100994.94
2022-10-23T11:57:09.257Z,100977.50
2022-10-23T11:59:53.828Z,100965.03
2022-10-23T12:02:33.167Z,100917.88
2022-10-23T12:05:05.339Z,100895.63
2022-10-23T12:07:40.061Z,100893.75
2022-10-23T12:10:24.611Z,100887.66
2022-10-23T12:12:59.137Z,100880.69
2022-10-23T12:15:27.987Z,100831.75
2022-10-23T12:18:25.080Z,100775.41
2022-10-23T12:20:56.121Z,100780.44
2022-10-23T12:24:01.075Z,100763.72
2022-10-23T12:26:53.236Z,100706.88
2022-10-23T12:29:51.196Z,100726.19
2022-10-23T12:32:33.316Z,100707.25
2022-10-23T12:35:22.289Z,100717.00
2022-10-23T12:38:04.692Z,100692.94
2022-10-23T12:40:32.980Z,100643.16
2022-10-23T12:43:02.004Z,100602.41
2022-10-23T12:45:33.475Z,100645.25
2022-10-23T12:48:01.256Z,100697.03
2022-10-23T12:50:33.673Z,100706.97
2022-10-23T12:53:03.666Z,100706.75
2022-10-23T12:55:35.869Z,100668.31
2022-10-23T12:58:05.074Z,100659.38
2022-10-23T13:00:33.137Z,100658.31
2022-10-23T13:03:04.959Z,100649.69
2022-10-23T13:05:34.509Z,100655.03
2022-10-23T13:08:03.695Z,100680.91
2022-10-23T13:10:32.103Z,100695.47
2022-10-23T13:13:03.571Z,100667.19
2022-10-23T13:15:39.621Z,100634.34
2022-10-23T13:18:11.591Z,100605.03
2022-10-23T13:20:45.720Z,100580.25
2022-10-23T13:23:20.032Z,100557.91
2022-10-23T13:25:55.264Z,100561.84
2022-10-23T13:28:26.283Z,100563.56
2022-10-23T13:31:23.739Z,100553.72
2022-10-23T13:33:55.784Z,100533.75
2022-10-23T13:36:27.482Z,100574.72
2022-10-23T13:39:04.948Z,100609.19
2022-10-23T13:41:41.439Z,100629.81
2022-10-23T13:44:13.686Z,100605.53
2022-10-23T13:46:42.939Z,100569.69
2022-10-23T13:49:15.670Z,100551.75
2022-10-23T13:51:50.224Z,100566.72
2022-10-23T13:54:20.400Z,100574.84
2022-10-23T13:56:48.582Z,100579.69
2022-10-23T13:59:17.485Z,100557.94
2022-10-23T14:01:47.442Z,100556.13
2022-10-23T14:04:16.727Z,100561.06
2022-10-23T14:06:46.268Z,100548.31
2022-10-23T14:09:17.625Z,100545.00
2022-10-23T14:11:45.721Z,100557.28
2022-10-23T14:14:15.941Z,100549.91
2022-10-23T14:16:45.652Z,100555.56
2022-10-23T14:19:17.014Z,100566.91
2022-10-23T14:21:46.325Z,100586.31
2022-10-23T14:24:14.744Z,100599.56
2022-10-23T14:26:43.231Z,100591.25
2022-10-23T14:29:21.203Z,100583.53
2022-10-23T14:31:51.126Z,100578.84
2022-10-23T14:34:19.141Z,100596.03
2022-10-23T14:36:50.164Z,100589.44
2022-10-23T14:39:21.664Z,100580.16
2022-10-23T14:41:49.690Z,100571.84
2022-10-23T14:44:17.857Z,100550.19
2022-10-23T14:46:45.968Z,100536.84
2022-10-23T14:49:13.885Z,100543.34
2022-10-23T14:51:45.588Z,100546.78
2022-10-23T14:54:16.124Z,100528.84
2022-10-23T14:56:44.057Z,100498.69
2022-10-23T14:59:13.604Z,100492.16
2022-10-23T15:01:45.587Z,100489.25
2022-10-23T15:04:16.107Z,100471.72
2022-10-23T15:06:44.344Z,100487.44
2022-10-23T15:09:12.513Z,100493.84
2022-10-23T15:11:41.712Z,100484.22
2022-10-23T15:14:11.372Z,100457.50
2022-10-23T15:16:41.715Z,100456.78
2022-10-23T15:19:15.131Z,100441.13
2022-10-23T15:21:46.459Z,100448.41
2022-10-23T15:24:15.914Z,100455.47
2022-10-23T15:26:50.220Z,100452.25
2022-10-23T15:29:18.891Z,100440.03
2022-10-23T15:31:56.887Z,100461.47
2022-10-23T15:34:27.024Z,100437.91
2022-10-23T15:36:59.999Z,100445.72
2022-10-23T15:39:33.667Z,100450.66
2022-10-23T15:42:04.934Z,100438.38
2022-10-23T15:44:34.147Z,100442.22
2022-10-23T15:47:03.871Z,100450.09
2022-10-23T15:49:31.859Z,100447.66
2022-10-23T15:52:04.107Z,100450.63
2022-10-23T15:54:33.067Z,100443.75
2022-10-23T15:57:05.390Z,100450.63
2022-10-23T15:59:33.739Z,100453.25
2022-10-23T16:02:05.610Z,100450.34
2022-10-23T16:04:35.376Z,100460.88
2022-10-23T16:07:03.291Z,100466.31
2022-10-23T16:09:31.423Z,100444.09
2022-10-23T16:11:59.374Z,100470.63
2022-10-23T16:14:29.219Z,100471.88
2022-10-23T16:16:57.746Z,100490.66
2022-10-23T16:19:25.798Z,100462.75
2022-10-23T16:21:53.918Z,100480.19
2022-10-23T16:24:22.036Z,100500.88
2022-10-23T16:26:53.268Z,100497.38
2022-10-23T16:29:25.605Z,100505.03
2022-10-23T16:32:00.505Z,100508.63
2022-10-23T16:34:28.635Z,100496.63
2022-10-23T16:36:56.350Z,100514.16
2022-10-23T16:39:24.590Z,100505.59
2022-10-23T16:41:52.531Z,100496.31
2022-10-23T16:44:20.508Z,100509.22
2022-10-23T16:46:48.331Z,100500.53
2022-10-23T16:49:17.777Z,100493.31
2022-10-23T16:51:48.073Z,100490.16
2022-10-23T16:54:19.919Z,100497.94
2022-10-23T16:56:48.402Z,100610.66
2022-10-23T16:59:26.555Z,100707.91
2022-10-23T17:01:56.526Z,100706.25
2022-10-23T17:04:28.038Z,100694.91
2022-10-23T17:07:02.773Z,100707.13
2022-10-23T17:09:38.831Z,100686.09
2022-10-23T17:12:11.825Z,100667.59
2022-10-23T17:14:40.735Z,100668.75
2022-10-23T17:17:20.597Z,100671.44
2022-10-23T17:19:49.941Z,100660.94
2022-10-23T17:22:19.357Z,100661.03
2022-10-23T17:24:50.202Z,100644.84
2022-10-23T17:27:22.373Z,100644.53
2022-10-23T17:29:54.680Z,100626.09
2022-10-23T17:32:22.918Z,100627.81
2022-10-23T17:34:53.561Z,100627.97
2022-10-23T17:37:21.424Z,100638.91
2022-10-23T17:39:50.753Z,100651.03
2022-10-23T17:42:18.771Z,100670.06
2022-10-23T17:44:47.069Z,100663.69
2022-10-23T17:47:14.953Z,100667.91
2022-10-23T17:49:45.412Z,100675.91
2022-10-23T17:52:17.760Z,100667.03
2022-10-23T17:54:45.716Z,100663.50
2022-10-23T17:57:14.035Z,100651.38
2022-10-23T17:59:42.028Z,100657.72
2022-10-23T18:02:13.045Z,100668.13
2022-10-23T18:04:41.237Z,100666.88
2022-10-23T18:07:13.058Z,100652.16
2022-10-23T18:09:42.607Z,100657.91
2022-10-23T18:12:10.607Z,100648.81
2022-10-23T18:14:40.146Z,100652.72
2022-10-23T18:17:08.301Z,100649.50
2022-10-23T18:19:36.552Z,100654.66
2022-10-23T18:22:04.730Z,100636.94
2022-10-23T18:24:32.880Z,100617.31
2022-10-23T18:27:03.162Z,100605.88
2022-10-23T18:29:31.026Z,100600.88
2022-10-23T18:31:58.945Z,100596.22
2022-10-23T18:34:28.020Z,100594.22
2022-10-23T18:36:56.546Z,100601.47
2022-10-23T18:39:27.885Z,100582.59
2022-10-23T18:41:58.214Z,100587.34
2022-10-23T18:44:29.409Z,100562.19
2022-10-23T18:46:58.399Z,100584.13
2022-10-23T18:49:26.864Z,100577.63
2022-10-23T18:51:54.777Z,100561.22
2022-10-23T18:54:23.059Z,100564.66
2022-10-23T18:56:54.187Z,100557.34
2022-10-23T18:59:25.165Z,100565.25
2022-10-23T19:01:54.678Z,100558.00
2022-10-23T19:04:25.095Z,100555.81
2022-10-23T19:06:52.946Z,100544.84
2022-10-23T19:09:25.380Z,100542.75
2022-10-23T19:11:53.403Z,100549.22
2022-10-23T19:14:21.242Z,100541.22
2022-10-23T19:17:00.324Z,100535.59
2022-10-23T19:19:31.587Z,100540.25
2022-10-23T19:22:00.545Z,100547.63
2022-10-23T19:24:34.349Z,100542.47
2022-10-23T19:27:03.534Z,100540.38
2022-10-23T19:29:32.581Z,100539.69
2022-10-23T19:32:01.943Z,100533.56
2022-10-23T19:34:30.392Z,100512.97
2022-10-23T19:36:58.265Z,100515.25
2022-10-23T19:39:28.401Z,100491.00
2022-10-23T19:41:58.535Z,100476.97
2022-10-23T19:44:26.859Z,100461.03
2022-10-23T19:46:54.810Z,100458.16
2022-10-23T19:49:24.905Z,100455.81
2022-10-23T19:51:52.806Z,100456.00
2022-10-23T19:54:22.140Z,100449.31
2022-10-23T19:56:50.230Z,100440.34
2022-10-23T19:59:18.569Z,100428.94
2022-10-23T20:01:48.940Z,100403.59
2022-10-23T20:04:19.367Z,100364.88
2022-10-23T20:06:49.137Z,100350.88
2022-10-23T20:09:17.391Z,100326.25
2022-10-23T20:11:45.588Z,100309.25
2022-10-23T20:14:13.957Z,100297.72
2022-10-23T20:16:44.738Z,100292.78
2022-10-23T20:19:14.699Z,100268.50
2022-10-23T20:21:45.128Z,100256.31
2022-10-23T20:24:16.328Z,100255.88
2022-10-23T20:26:46.730Z,100264.34
2022-10-23T20:29:15.135Z,100281.56
2022-10-23T20:31:44.071Z,100298.69
2022-10-23T20:34:12.928Z,100366.69
2022-10-23T20:36:53.309Z,100400.25
2022-10-23T20:39:26.725Z,100406.44
2022-10-23T20:41:55.606Z,100432.88
2022-10-23T20:44:25.334Z,100441.94
2022-10-23T20:46:53.792Z,100459.13
2022-10-23T20:49:24.268Z,100486.25
2022-10-23T20:51:55.664Z,100520.91
2022-10-23T20:54:29.791Z,100515.91
2022-10-23T20:56:58.844Z,100515.06
2022-10-23T20:59:27.150Z,100493.63
2022-10-23T21:01:57.546Z,100469.03
2022-10-23T21:04:29.233Z,100450.25
2022-10-23T21:07:10.352Z,100413.47
2022-10-23T21:09:40.823Z,100406.78
2022-10-23T21:12:09.269Z,100419.94
2022-10-23T21:14:37.651Z,100393.63
2022-10-23T21:17:05.915Z,100401.44
2022-10-23T21:19:37.247Z,100399.91
2022-10-23T21:22:05.932Z,100407.03
2022-10-23T21:24:37.553Z,100387.59
2022-10-23T21:27:07.803Z,100381.78
2022-10-23T21:29:36.692Z,100365.97
2022-10-23T21:32:04.770Z,100362.28
2022-10-23T21:34:34.171Z,100328.84
2022-10-23T21:37:13.519Z,100320.75
2022-10-23T21:39:42.792Z,100310.28
2022-10-23T21:42:22.389Z,100285.78
2022-10-23T21:45:04.345Z,100286.25
2022-10-23T21:47:34.998Z,100273.69
2022-10-23T21:50:02.818Z,100275.13
2022-10-23T21:52:30.596Z,100265.88
2022-10-23T21:55:11.718Z,100281.63
2022-10-23T21:57:40.765Z,100298.56
2022-10-23T22:00:37.066Z,100330.69
2022-10-23T22:03:11.684Z,100364.44
2022-10-23T22:05:42.971Z,100407.59
2022-10-23T22:08:30.603Z,100431.16
2022-10-23T22:11:01.553Z,100456.59
2022-10-23T22:13:31.765Z,100472.41
2022-10-23T22:16:05.600Z,100494.03
2022-10-23T22:18:36.161Z,100509.19
2022-10-23T22:21:09.312Z,100524.84
2022-10-23T22:23:38.140Z,100537.69
2022-10-23T22:26:07.233Z,100530.38
2022-10-23T22:28:37.106Z,100526.75
2022-10-23T22:31:05.169Z,100532.19
2022-10-23T22:33:33.023Z,100530.25
2022-10-23T22:36:04.580Z,100529.22
2022-10-23T22:38:32.933Z,100531.88
2022-10-23T22:41:01.956Z,100529.13
2022-10-23T22:43:31.765Z,100532.06
2022-10-23T22:46:06.307Z,100527.69
2022-10-23T22:48:34.569Z,100526.91
2022-10-23T22:51:07.210Z,100515.69
2022-10-23T22:53:38.044Z,100514.44
2022-10-23T22:56:07.677Z,100501.94
2022-10-23T22:58:36.338Z,100507.28
2022-10-23T23:01:16.854Z,100502.13
2022-10-23T23:03:45.593Z,100486.03
2022-10-23T23:06:16.870Z,100485.09
2022-10-23T23:08:49.263Z,100500.41
2022-10-23T23:11:21.880Z,100499.63
2022-10-23T23:13:50.608Z,100498.50
2022-10-23T23:16:22.741Z,100496.78
2022-10-23T23:18:50.839Z,100503.25
2022-10-23T23:21:20.109Z,100504.97
2022-10-23T23:23:48.883Z,100509.38
2022-10-23T23:26:17.184Z,100499.28
2022-10-23T23:28:48.007Z,100524.06
2022-10-23T23:31:21.216Z,100512.53
2022-10-23T23:33:49.650Z,100521.19
2022-10-23T23:36:21.405Z,100510.34
2022-10-23T23:38:49.778Z,100406.25
2022-10-23T23:41:19.291Z,100347.31
2022-10-23T23:43:47.574Z,100321.38
2022-10-23T23:46:16.216Z,100330.25
2022-10-23T23:48:49.826Z,100326.97
2022-10-23T23:51:19.771Z,100311.13
2022-10-23T23:53:47.747Z,100312.00
2022-10-23T23:56:16.696Z,100296.84
2022-10-23T23:58:44.617Z,100302.97
